Time;durP1;ratioP1;P1;durP2;ratioP2;P2;SDS_P1;SDS_P2;PMS_P1;PMS_P2;Temp;Humidity;BMP_temperature;BMP_pressure;BME280_temperature;BME280_humidity;BME280_pressure;Samples;Min_cycle;Max_cycle;Signal;HPM_P1;HPM_P2
2022/11/12 00:02:18;;;;;;;15.25;9.30;;;;;;;7.11;100.00;103132.03;4998097;28;20038;-85
2022/11/12 00:05:05;;;;;;;13.02;8.93;;;;;;;7.10;100.00;103128.47;5021097;28;20034;-83
2022/11/12 00:07:52;;;;;;;14.10;8.32;;;;;;;7.08;100.00;103131.84;5027250;28;20045;-86
2022/11/12 00:10:39;;;;;;;13.52;8.18;;;;;;;7.05;100.00;103127.34;5013627;28;20037;-84
2022/11/12 00:13:26;;;;;;;12.27;9.02;;;;;;;7.04;100.00;103130.78;5014588;28;20041;-84
2022/11/12 00:16:13;;;;;;;11.48;8.77;;;;;;;7.02;100.00;103128.06;5017005;28;20033;-85
2022/11/12 00:19:00;;;;;;;10.10;8.77;;;;;;;7.03;100.00;103121.09;5007558;28;20042;-84
2022/11/12 00:21:49;;;;;;;12.20;9.60;;;;;;;7.00;100.00;103127.06;5022258;28;20041;-84
2022/11/12 00:24:36;;;;;;;10.90;8.30;;;;;;;7.00;100.00;103140.19;4999769;28;20317;-84
2022/11/12 00:27:23;;;;;;;11.43;8.57;;;;;;;6.97;100.00;103124.28;5017402;28;20045;-84
2022/11/12 00:30:10;;;;;;;16.80;8.55;;;;;;;6.93;100.00;103127.56;5013434;28;20042;-84
2022/11/12 00:33:01;;;;;;;9.93;8.57;;;;;;;6.90;100.00;103131.72;5002222;28;20037;-84
2022/11/12 00:35:48;;;;;;;13.10;8.65;;;;;;;6.87;100.00;103137.72;5038351;28;20045;-84
2022/11/12 00:38:37;;;;;;;10.43;8.38;;;;;;;6.86;100.00;103130.66;5027893;28;20049;-84
2022/11/12 00:41:24;;;;;;;11.63;8.88;;;;;;;6.84;100.00;103137.53;5025731;28;20037;-84
2022/11/12 00:44:11;;;;;;;12.48;8.30;;;;;;;6.81;100.00;103150.50;5029655;28;20380;-84
2022/11/12 00:46:58;;;;;;;11.18;8.35;;;;;;;6.80;100.00;103143.44;4998133;28;20046;-84
2022/11/12 00:49:45;;;;;;;13.05;8.82;;;;;;;6.77;100.00;103133.69;5009951;28;20399;-84
2022/11/12 00:52:32;;;;;;;13.65;8.15;;;;;;;6.74;100.00;103137.84;5019902;28;20046;-84
2022/11/12 00:55:19;;;;;;;11.48;7.60;;;;;;;6.72;100.00;103147.34;5021881;28;20034;-84
2022/11/12 00:58:07;;;;;;;13.27;8.43;;;;;;;6.70;100.00;103146.38;5007823;28;20068;-85
2022/11/12 01:00:56;;;;;;;10.10;7.95;;;;;;;6.67;100.00;103152.31;5018789;28;20394;-82
2022/11/12 01:03:43;;;;;;;10.93;7.97;;;;;;;6.64;100.00;103142.59;5003102;28;20061;-85
2022/11/12 01:06:39;;;;;;;15.90;8.85;;;;;;;6.60;100.00;103135.38;5021828;28;20261;-83
2022/11/12 01:09:26;;;;;;;11.43;9.75;;;;;;;6.58;100.00;103141.34;5019966;28;20686;-85
2022/11/12 01:12:13;;;;;;;13.98;8.35;;;;;;;6.56;100.00;103142.94;5001330;28;20044;-85
2022/11/12 01:15:00;;;;;;;11.20;7.95;;;;;;;6.52;100.00;103141.91;5011701;28;20030;-85
2022/11/12 01:17:47;;;;;;;13.30;8.93;;;;;;;6.51;100.00;103154.91;5034469;28;20045;-85
2022/11/12 01:20:37;;;;;;;15.98;10.98;;;;;;;6.50;100.00;103150.47;4992750;28;20054;-85
2022/11/12 01:23:24;;;;;;;18.85;10.15;;;;;;;6.50;100.00;103142.63;5029224;28;20049;-85
2022/11/12 01:26:15;;;;;;;11.25;8.77;;;;;;;6.49;100.00;103149.56;5017194;28;20030;-85
2022/11/12 01:29:02;;;;;;;13.20;8.45;;;;;;;6.45;100.00;103145.00;5022441;28;20046;-84
2022/11/12 01:31:49;;;;;;;15.93;10.00;;;;;;;6.41;100.00;103141.28;5008350;28;20407;-84
2022/11/12 01:34:37;;;;;;;12.30;9.25;;;;;;;6.38;100.00;103141.09;5014052;28;20274;-84
2022/11/12 01:37:24;;;;;;;14.27;9.68;;;;;;;6.38;100.00;103155.91;5012699;28;20159;-84
2022/11/12 01:40:11;;;;;;;12.05;8.73;;;;;;;6.38;100.00;103155.91;5017166;28;20061;-84
2022/11/12 01:42:59;;;;;;;16.23;10.32;;;;;;;6.36;100.00;103152.31;5027160;28;20042;-84
2022/11/12 01:45:50;;;;;;;14.40;9.43;;;;;;;6.35;100.00;103140.03;5009911;28;20042;-85
2022/11/12 01:48:44;;;;;;;12.77;10.55;;;;;;;6.33;100.00;103136.41;5020886;28;20284;-84
2022/11/12 01:51:40;;;;;;;13.65;10.75;;;;;;;6.32;100.00;103153.84;5015216;28;20296;-84
2022/11/12 01:54:28;;;;;;;13.43;10.38;;;;;;;6.32;100.00;103150.34;5027107;28;20080;-84
2022/11/12 01:57:19;;;;;;;13.93;9.68;;;;;;;6.34;100.00;103154.84;5021203;28;20487;-84
2022/11/12 02:00:10;;;;;;;16.55;10.93;;;;;;;6.34;100.00;103138.22;5026889;28;20045;-84
2022/11/12 02:02:59;;;;;;;17.73;11.15;;;;;;;6.31;100.00;103140.66;5034747;28;20529;-83
2022/11/12 02:06:06;;;;;;;13.50;10.50;;;;;;;6.30;100.00;103138.88;5027700;28;20046;-84
2022/11/12 02:08:54;;;;;;;16.70;10.45;;;;;;;6.30;100.00;103131.03;5006169;28;20308;-83
2022/11/12 02:11:41;;;;;;;15.77;10.55;;;;;;;6.30;100.00;103141.50;5037361;28;20076;-83
2022/11/12 02:14:29;;;;;;;17.25;10.75;;;;;;;6.30;100.00;103136.25;5025340;28;20353;-84
2022/11/12 02:17:16;;;;;;;13.93;10.30;;;;;;;6.29;100.00;103131.81;5024492;28;20042;-84
2022/11/12 02:20:07;;;;;;;15.32;11.45;;;;;;;6.24;100.00;103119.38;5012134;28;20046;-84
2022/11/12 02:23:07;;;;;;;15.65;10.35;;;;;;;6.21;100.00;103127.03;5025483;28;20041;-83
2022/11/12 02:25:54;;;;;;;14.32;10.52;;;;;;;6.21;100.00;103136.63;5024149;28;20072;-83
2022/11/12 02:28:41;;;;;;;16.45;10.57;;;;;;;6.22;100.00;103138.44;5007019;28;20403;-83
2022/11/12 02:31:28;;;;;;;15.80;10.68;;;;;;;6.21;100.00;103142.75;5019271;28;20037;-83
2022/11/12 02:34:15;;;;;;;17.40;10.00;;;;;;;6.18;100.00;103126.88;5016327;28;20057;-84
2022/11/12 02:37:02;;;;;;;16.70;11.82;;;;;;;6.14;100.00;103118.75;5016850;28;20050;-84
2022/11/12 02:39:49;;;;;;;13.88;9.75;;;;;;;6.12;100.00;103131.75;5013451;28;20041;-83
2022/11/12 02:42:36;;;;;;;15.10;10.07;;;;;;;6.08;100.00;103132.38;5037212;28;20038;-83
2022/11/12 02:45:23;;;;;;;17.00;11.63;;;;;;;6.04;100.00;103133.03;5003307;28;20057;-83
2022/11/12 02:48:10;;;;;;;18.45;11.85;;;;;;;6.01;100.00;103132.84;5017932;28;20041;-84
2022/11/12 02:51:05;;;;;;;17.77;12.25;;;;;;;6.00;100.00;103146.75;5004027;28;20058;-84
2022/11/12 02:53:52;;;;;;;16.13;11.05;;;;;;;6.01;100.00;103159.94;5021661;28;20491;-84
2022/11/12 02:56:39;;;;;;;17.98;11.85;;;;;;;6.01;100.00;103151.16;5023246;28;20048;-83
2022/11/12 02:59:26;;;;;;;20.45;12.48;;;;;;;6.00;100.00;103131.94;5008434;28;23194;-83
2022/11/12 03:02:13;;;;;;;18.02;12.65;;;;;;;5.98;100.00;103135.28;5020791;28;20053;-84
2022/11/12 03:05:00;;;;;;;17.00;12.43;;;;;;;6.00;100.00;103149.38;5018760;28;20038;-84
2022/11/12 03:07:47;;;;;;;19.95;12.27;;;;;;;6.01;100.00;103143.31;5020873;28;20038;-84
2022/11/12 03:10:39;;;;;;;19.52;12.25;;;;;;;6.01;100.00;103132.84;4999043;28;20120;-83
2022/11/12 03:13:26;;;;;;;16.63;11.75;;;;;;;5.97;100.00;103134.41;5017256;28;20052;-83
2022/11/12 03:16:13;;;;;;;16.30;11.32;;;;;;;5.95;100.00;103140.28;5013347;28;20038;-84
2022/11/12 03:19:00;;;;;;;14.30;11.23;;;;;;;5.92;100.00;103138.41;5013189;28;20033;-83
2022/11/12 03:21:47;;;;;;;19.27;12.05;;;;;;;5.87;100.00;103121.53;5010381;28;20053;-83
2022/11/12 03:24:34;;;;;;;21.27;12.38;;;;;;;5.84;100.00;103131.81;5025401;28;20263;-83
2022/11/12 03:27:22;;;;;;;16.10;11.73;;;;;;;5.84;100.00;103144.88;4999397;28;20052;-84
2022/11/12 03:30:09;;;;;;;15.60;11.80;;;;;;;5.82;100.00;103136.97;5011495;28;20508;-84
2022/11/12 03:32:56;;;;;;;19.83;12.70;;;;;;;5.80;100.00;103137.69;5043138;28;20046;-84
2022/11/12 03:35:43;;;;;;;22.10;14.52;;;;;;;5.76;100.00;103141.81;5019960;28;20042;-83
2022/11/12 03:38:30;;;;;;;20.20;12.65;;;;;;;5.76;100.00;103144.44;5012805;28;20062;-83
2022/11/12 03:41:17;;;;;;;20.75;12.45;;;;;;;5.76;100.00;103149.66;4998525;28;20029;-83
2022/11/12 03:44:04;;;;;;;17.23;12.70;;;;;;;5.79;100.00;103146.34;5036103;28;20048;-83
2022/11/12 03:46:51;;;;;;;20.60;13.82;;;;;;;5.76;100.00;103141.81;4992588;28;20551;-83
2022/11/12 03:49:38;;;;;;;19.58;13.93;;;;;;;5.75;100.00;103136.53;5025890;28;20499;-83
2022/11/12 03:52:28;;;;;;;19.73;13.60;;;;;;;5.73;100.00;103146.88;5007524;28;20065;-84
2022/11/12 03:55:18;;;;;;;19.40;13.15;;;;;;;5.73;100.00;103154.75;5032515;28;20054;-84
2022/11/12 03:58:04;;;;;;;21.02;14.40;;;;;;;5.70;100.00;103138.84;5002606;28;20044;-84
2022/11/12 04:00:51;;;;;;;18.20;14.05;;;;;;;5.69;100.00;103133.50;4998769;28;20061;-84
2022/11/12 04:03:38;;;;;;;22.63;15.38;;;;;;;5.69;100.00;103133.50;5014119;28;20045;-84
2022/11/12 04:09:30;;;;;;;20.42;13.75;;;;;;;5.69;100.00;103144.91;5026636;28;20049;-84
2022/11/12 04:15:22;;;;;;;18.38;13.88;;;;;;;5.65;100.00;103127.19;5024918;28;20056;-84
2022/11/12 04:27:39;;;;;;;23.52;15.23;;;;;;;5.59;100.00;103134.69;5014662;28;20049;-85
2022/11/12 04:30:26;;;;;;;19.55;14.73;;;;;;;5.54;100.00;103129.19;5001886;28;20053;-86
2022/11/12 04:33:13;;;;;;;20.23;14.38;;;;;;;5.54;100.00;103136.09;5025331;28;20081;-84
2022/11/12 04:36:00;;;;;;;17.75;12.77;;;;;;;5.54;100.00;103142.25;5018421;28;20038;-84
2022/11/12 04:38:47;;;;;;;19.77;13.77;;;;;;;5.54;100.00;103141.34;5016454;28;20330;-84
2022/11/12 04:44:58;;;;;;;21.35;15.18;;;;;;;5.47;100.00;103133.13;5012556;28;20046;-85
2022/11/12 04:47:45;;;;;;;21.98;15.07;;;;;;;5.45;100.00;103134.75;5015961;28;20250;-85
2022/11/12 04:50:33;;;;;;;21.45;15.43;;;;;;;5.46;100.00;103144.41;5002200;28;20058;-85
2022/11/12 04:53:20;;;;;;;21.50;15.07;;;;;;;5.46;100.00;103143.50;5018104;28;20052;-84
2022/11/12 04:56:07;;;;;;;21.40;13.65;;;;;;;5.43;100.00;103136.38;5013210;28;20048;-84
2022/11/12 04:58:54;;;;;;;22.75;14.10;;;;;;;5.40;100.00;103133.56;5017944;28;20045;-84
2022/11/12 05:01:41;;;;;;;24.42;16.65;;;;;;;5.38;100.00;103126.44;5007576;28;20064;-85
2022/11/12 05:04:28;;;;;;;21.10;15.88;;;;;;;5.37;100.00;103145.53;5033116;28;20049;-84
2022/11/12 05:07:16;;;;;;;24.48;15.25;;;;;;;5.39;100.00;103154.41;5023770;28;20424;-84
2022/11/12 05:10:03;;;;;;;21.42;13.98;;;;;;;5.39;100.00;103152.69;5027053;28;20045;-85
2022/11/12 05:12:53;;;;;;;15.48;11.82;;;;;;;5.38;100.00;103136.91;5034212;28;20054;-84
2022/11/12 05:15:42;;;;;;;27.65;16.98;;;;;;;5.35;100.00;103136.69;5017234;28;20399;-84
2022/11/12 05:18:30;;;;;;;22.60;15.97;;;;;;;5.31;100.00;103133.00;5025019;28;20050;-84
2022/11/12 05:24:29;;;;;;;19.65;15.57;;;;;;;5.32;100.00;103142.66;5013514;28;20044;-84
2022/11/12 05:27:28;;;;;;;25.23;15.15;;;;;;;5.32;100.00;103132.19;5025756;28;20045;-84
2022/11/12 05:30:15;;;;;;;26.75;16.35;;;;;;;5.30;100.00;103127.69;5032241;28;20418;-84
2022/11/12 05:33:02;;;;;;;24.92;16.70;;;;;;;5.27;100.00;103144.06;5009890;28;20387;-85
2022/11/12 05:35:49;;;;;;;21.65;16.15;;;;;;;5.26;100.00;103157.97;5030145;28;20100;-84
2022/11/12 05:38:37;;;;;;;22.85;15.65;;;;;;;5.24;100.00;103164.81;5017856;28;20034;-84
2022/11/12 05:41:28;;;;;;;19.85;14.27;;;;;;;5.22;100.00;103146.41;4999222;28;20046;-84
2022/11/12 05:44:35;;;;;;;23.98;15.48;;;;;;;5.18;100.00;103139.22;5018630;28;20491;-84
2022/11/12 05:47:22;;;;;;;27.95;17.55;;;;;;;5.16;100.00;103156.50;5015510;28;20072;-84
2022/11/12 05:50:09;;;;;;;23.45;15.82;;;;;;;5.14;100.00;103168.56;5018580;28;20042;-85
2022/11/12 05:52:56;;;;;;;26.60;17.58;;;;;;;5.14;100.00;103170.25;5015177;28;20410;-85
2022/11/12 05:55:44;;;;;;;24.17;16.23;;;;;;;5.12;100.00;103167.56;5019051;28;20046;-84
2022/11/12 05:58:32;;;;;;;21.70;15.85;;;;;;;5.08;100.00;103150.81;5029334;28;20033;-84
2022/11/12 06:01:19;;;;;;;22.85;15.98;;;;;;;5.04;100.00;103167.06;5026988;28;20534;-84
2022/11/12 06:04:06;;;;;;;23.65;16.23;;;;;;;5.03;100.00;103170.50;5013383;28;20514;-85
2022/11/12 06:06:53;;;;;;;21.42;15.13;;;;;;;5.03;100.00;103180.06;5029127;28;20045;-84
2022/11/12 06:09:40;;;;;;;21.42;15.70;;;;;;;4.98;100.00;103161.47;5028500;28;20037;-84
2022/11/12 06:12:28;;;;;;;27.77;17.23;;;;;;;4.97;100.00;103150.91;5046478;28;20047;-84
2022/11/12 06:15:15;;;;;;;25.63;17.23;;;;;;;4.96;100.00;103163.09;5016457;28;20049;-84
2022/11/12 06:18:02;;;;;;;22.77;16.55;;;;;;;4.98;100.00;103177.16;5031464;28;20491;-84
2022/11/12 06:21:18;;;;;;;24.42;16.52;;;;;;;4.99;100.00;103183.25;5009709;28;20045;-83
2022/11/12 06:23:59;;;;;;;28.67;17.40;;;;;;;4.96;100.00;103167.41;5029245;28;20060;-85
2022/11/12 06:26:53;;;;;;;22.17;16.35;;;;;;;4.94;100.00;103156.84;5026781;28;20053;-85
2022/11/12 06:29:40;;;;;;;26.08;16.20;;;;;;;4.93;100.00;103161.97;5028823;28;20491;-85
2022/11/12 06:32:27;;;;;;;24.60;16.92;;;;;;;4.90;100.00;103167.94;5028701;28;20041;-84
2022/11/12 06:35:15;;;;;;;23.77;14.32;;;;;;;4.92;100.00;103161.09;5017028;28;20516;-84
2022/11/12 06:38:02;;;;;;;22.92;16.17;;;;;;;4.90;100.00;103149.63;5012131;28;20403;-84
2022/11/12 06:40:49;;;;;;;24.02;15.85;;;;;;;4.88;100.00;103148.66;5034059;28;20041;-84
2022/11/12 06:43:38;;;;;;;21.50;15.73;;;;;;;4.86;100.00;103161.59;5026640;28;20032;-86
2022/11/12 06:46:25;;;;;;;25.75;15.32;;;;;;;4.87;100.00;103165.09;5030153;28;20360;-86
2022/11/12 06:49:12;;;;;;;21.90;14.23;;;;;;;4.86;100.00;103164.22;4998060;28;20057;-86
2022/11/12 06:52:00;;;;;;;19.92;13.63;;;;;;;4.85;100.00;103165.00;5043195;28;20060;-87
2022/11/12 06:54:47;;;;;;;17.17;12.90;;;;;;;4.84;100.00;103157.09;5030618;28;20049;-85
2022/11/12 06:57:34;;;;;;;20.88;14.48;;;;;;;4.82;100.00;103159.59;5012993;28;20041;-85
2022/11/12 07:00:22;;;;;;;20.27;12.82;;;;;;;4.80;100.00;103173.34;5026088;28;20040;-85
2022/11/12 07:03:12;;;;;;;21.80;13.27;;;;;;;4.79;100.00;103163.72;5026794;28;20042;-86
2022/11/12 07:06:05;;;;;;;18.75;12.68;;;;;;;4.76;100.00;103158.28;5027648;28;20521;-86
2022/11/12 07:08:52;;;;;;;15.20;11.93;;;;;;;4.74;100.00;103154.69;5030582;28;20041;-86
2022/11/12 07:11:39;;;;;;;16.60;11.50;;;;;;;4.73;100.00;103164.25;5032471;28;20042;-85
2022/11/12 07:14:27;;;;;;;18.00;11.40;;;;;;;4.71;100.00;103162.31;5026716;28;20045;-85
2022/11/12 07:17:14;;;;;;;18.42;11.65;;;;;;;4.70;100.00;103169.25;5044996;28;20041;-86
2022/11/12 07:20:02;;;;;;;17.25;11.10;;;;;;;4.72;100.00;103178.09;5001859;28;20045;-85
2022/11/12 07:22:50;;;;;;;18.20;11.55;;;;;;;4.75;100.00;103177.41;5019759;28;20033;-85
2022/11/12 07:25:36;;;;;;;15.88;11.02;;;;;;;4.77;100.00;103175.78;5038010;28;20051;-85
2022/11/12 07:28:30;;;;;;;19.90;11.77;;;;;;;4.77;100.00;103181.00;5041693;28;20063;-86
2022/11/12 07:31:19;;;;;;;18.75;10.88;;;;;;;4.80;100.00;103196.88;5025622;28;20247;-85
2022/11/12 07:34:06;;;;;;;15.65;10.80;;;;;;;4.81;100.00;103204.81;5014057;28;20049;-86
2022/11/12 07:36:53;;;;;;;14.27;10.88;;;;;;;4.83;100.00;103202.28;5008771;28;20045;-86
2022/11/12 07:39:39;;;;;;;17.25;12.02;;;;;;;4.85;100.00;103195.47;5026678;28;20113;-85
2022/11/12 07:42:26;;;;;;;15.70;11.75;;;;;;;4.87;100.00;103196.47;5024426;28;20100;-85
2022/11/12 07:45:14;;;;;;;16.55;11.77;;;;;;;4.93;100.00;103211.63;5017668;28;20203;-86
2022/11/12 07:48:01;;;;;;;18.00;11.38;;;;;;;4.96;100.00;103224.91;5030289;28;20049;-87
2022/11/12 07:50:48;;;;;;;17.65;10.95;;;;;;;5.00;100.00;103217.34;5020434;28;20052;-85
2022/11/12 07:53:35;;;;;;;17.20;11.82;;;;;;;5.06;100.00;103202.03;5023841;28;20041;-85
2022/11/12 07:56:24;;;;;;;22.15;12.52;;;;;;;5.11;100.00;103206.69;5015179;28;20684;-85
2022/11/12 07:59:11;;;;;;;16.13;11.35;;;;;;;5.18;100.00;103219.31;4993715;28;20507;-86
2022/11/12 08:01:58;;;;;;;17.98;11.68;;;;;;;5.25;100.00;103229.34;5024805;28;20030;-86
2022/11/12 08:04:46;;;;;;;17.33;12.13;;;;;;;5.31;100.00;103218.38;5016380;28;20045;-86
2022/11/12 08:07:33;;;;;;;18.42;12.50;;;;;;;5.36;100.00;103201.28;5012089;28;20052;-85
2022/11/12 08:10:20;;;;;;;19.10;12.15;;;;;;;5.40;100.00;103212.00;5031203;28;20045;-86
2022/11/12 08:13:07;;;;;;;16.25;10.77;;;;;;;5.46;100.00;103235.03;5009869;28;20044;-86
2022/11/12 08:15:58;;;;;;;23.05;11.38;;;;;;;5.51;100.00;103251.03;5011536;28;20045;-87
2022/11/12 08:18:45;;;;;;;58.13;15.75;;;;;;;5.55;100.00;103248.66;5024286;28;20064;-85
2022/11/12 08:21:32;;;;;;;75.30;16.08;;;;;;;5.61;100.00;103242.91;5030858;28;20030;-86
2022/11/12 08:24:19;;;;;;;80.68;16.80;;;;;;;5.62;100.00;103234.28;5010862;28;20052;-85
2022/11/12 08:27:06;;;;;;;86.22;17.98;;;;;;;5.64;100.00;103230.94;5014416;28;20046;-86
2022/11/12 08:29:54;;;;;;;82.65;17.52;;;;;;;5.68;100.00;103231.13;5011125;28;20038;-86
2022/11/12 08:32:41;;;;;;;96.40;17.35;;;;;;;5.72;100.00;103241.88;5002189;28;20057;-85
2022/11/12 08:35:29;;;;;;;97.35;18.92;;;;;;;5.75;100.00;103249.91;5025271;28;20034;-85
2022/11/12 08:38:16;;;;;;;89.28;17.38;;;;;;;5.81;100.00;103255.50;4996625;28;20076;-85
2022/11/12 08:41:07;;;;;;;88.55;18.02;;;;;;;5.88;100.00;103256.81;5027851;28;20045;-86
2022/11/12 08:43:56;;;;;;;122.20;21.50;;;;;;;5.92;100.00;103252.66;5012434;28;20050;-86
2022/11/12 08:46:44;;;;;;;131.50;22.15;;;;;;;5.94;100.00;103245.81;5008025;28;20068;-86
2022/11/12 08:49:31;;;;;;;139.93;22.55;;;;;;;5.94;100.00;103254.56;5028562;28;20044;-85
2022/11/12 08:52:18;;;;;;;117.32;23.02;;;;;;;5.96;100.00;103252.06;5005848;28;20607;-85
2022/11/12 08:55:05;;;;;;;140.65;27.50;;;;;;;5.97;100.00;103265.25;5022257;28;20057;-86
2022/11/12 08:57:54;;;;;;;47.35;17.98;;;;;;;5.99;100.00;103261.03;5024700;28;20053;-86
2022/11/12 09:00:43;;;;;;;75.78;20.55;;;;;;;6.02;100.00;103257.66;5011348;28;20037;-85
2022/11/12 09:03:30;;;;;;;47.97;18.77;;;;;;;6.03;100.00;103243.75;5002576;28;20049;-86
2022/11/12 09:06:17;;;;;;;84.95;21.65;;;;;;;6.07;100.00;103253.63;5024029;28;20038;-85
2022/11/12 09:09:03;;;;;;;81.57;22.02;;;;;;;6.12;100.00;103266.97;5000711;28;20077;-86
2022/11/12 09:11:50;;;;;;;109.68;22.50;;;;;;;6.16;100.00;103259.41;5013443;28;20077;-86
2022/11/12 09:14:37;;;;;;;87.35;21.05;;;;;;;6.22;100.00;103265.00;5011052;28;20038;-86
2022/11/12 09:17:24;;;;;;;113.32;22.17;;;;;;;6.28;100.00;103247.88;4996152;28;20042;-86
2022/11/12 09:20:11;;;;;;;108.97;22.35;;;;;;;6.38;100.00;103252.81;5027442;28;20041;-85
2022/11/12 09:23:01;;;;;;;126.32;24.02;;;;;;;6.46;100.00;103263.75;5015488;28;20511;-86
2022/11/12 09:25:47;;;;;;;136.95;24.42;;;;;;;6.52;100.00;103272.88;5012647;28;20158;-86
2022/11/12 09:28:35;;;;;;;136.93;22.92;;;;;;;6.59;100.00;103279.38;5011906;28;20037;-87
2022/11/12 09:31:28;;;;;;;162.32;24.08;;;;;;;6.65;100.00;103271.84;5025305;28;20059;-86
2022/11/12 09:34:15;;;;;;;111.20;20.25;;;;;;;6.69;100.00;103267.69;5015982;28;20054;-86
2022/11/12 09:37:02;;;;;;;142.77;25.73;;;;;;;6.73;100.00;103277.53;5020967;28;20384;-86
2022/11/12 09:39:49;;;;;;;141.65;28.00;;;;;;;6.76;100.00;103281.25;4982065;28;20041;-86
2022/11/12 09:42:36;;;;;;;149.43;27.00;;;;;;;6.81;100.00;103281.53;5019881;28;20014;-87
2022/11/12 09:45:33;;;;;;;110.85;23.13;;;;;;;6.84;100.00;103273.81;5006933;28;20061;-86
2022/11/12 09:48:28;;;;;;;62.22;20.70;;;;;;;6.89;100.00;103280.25;5008201;28;20056;-86
2022/11/12 09:51:31;;;;;;;103.13;25.80;;;;;;;6.94;100.00;103273.56;5015523;28;20052;-85
2022/11/12 09:54:24;;;;;;;51.47;20.20;;;;;;;6.98;100.00;103272.00;5015614;28;20041;-85
2022/11/12 09:57:12;;;;;;;92.65;25.92;;;;;;;7.04;100.00;103267.09;5030501;28;20045;-85
2022/11/12 10:00:01;;;;;;;82.18;24.65;;;;;;;7.10;100.00;103270.06;5024570;28;20041;-86
2022/11/12 10:02:59;;;;;;;86.07;24.83;;;;;;;7.18;100.00;103268.78;5013744;28;20080;-85
2022/11/12 10:05:54;;;;;;;154.93;28.50;;;;;;;7.22;100.00;103268.13;5026154;28;20274;-85
2022/11/12 10:09:02;;;;;;;92.60;24.92;;;;;;;7.28;100.00;103269.28;5031822;28;20085;-85
2022/11/12 10:19:21;;;;;;;80.93;23.52;;;;;;;7.46;100.00;103251.03;5018102;28;20353;-85
2022/11/12 10:22:11;;;;;;;;;;;;;;;7.51;100.00;103247.84;5022065;28;20034;-85
2022/11/12 10:25:13;;;;;;;193.65;30.15;;;;;;;7.56;100.00;103248.06;5034062;28;20006;-85
2022/11/12 10:28:12;;;;;;;116.63;26.13;;;;;;;7.54;100.00;103250.66;5005422;28;20057;-85
2022/11/12 10:31:20;;;;;;;66.50;24.00;;;;;;;7.56;100.00;103251.63;5034435;28;20053;-85
2022/11/12 10:34:14;;;;;;;57.40;21.63;;;;;;;7.62;100.00;103251.06;5021113;28;20046;-85
2022/11/12 10:37:16;;;;;;;121.85;26.52;;;;;;;7.66;100.00;103245.16;5033841;28;20048;-85
2022/11/12 10:40:32;;;;;;;78.72;22.65;;;;;;;7.72;100.00;103239.31;5016803;28;20683;-85
2022/11/12 10:43:22;;;;;;;83.82;21.70;;;;;;;7.74;100.00;103230.69;5001754;28;20045;-85
2022/11/12 10:46:19;;;;;;;83.80;24.05;;;;;;;7.80;100.00;103235.38;5012871;28;20057;-84
2022/11/12 10:49:25;;;;;;;76.43;23.50;;;;;;;7.85;100.00;103254.00;5016637;28;20841;-85
2022/11/12 10:52:23;;;;;;;57.33;22.10;;;;;;;7.86;100.00;103250.53;5035854;28;20038;-84
2022/11/12 10:55:31;;;;;;;84.18;25.65;;;;;;;7.91;100.00;103244.72;5033161;28;20045;-85
2022/11/12 10:58:19;;;;;;;83.88;24.70;;;;;;;7.96;100.00;103239.72;5009367;28;20053;-85
2022/11/12 11:01:16;;;;;;;179.07;27.60;;;;;;;7.97;100.00;103226.66;5006484;28;20052;-86
2022/11/12 11:04:14;;;;;;;144.13;26.08;;;;;;;8.00;100.00;103234.69;5022917;28;20038;-86
2022/11/12 11:07:04;;;;;;;108.97;24.20;;;;;;;8.01;100.00;103235.59;4994886;28;20052;-85
2022/11/12 11:09:53;;;;;;;149.83;26.70;;;;;;;8.05;100.00;103234.91;5018978;28;20038;-86
2022/11/12 11:12:40;;;;;;;87.63;23.98;;;;;;;8.08;100.00;103239.44;5019445;28;20053;-85
2022/11/12 11:15:27;;;;;;;83.25;23.77;;;;;;;8.08;100.00;103235.09;4996083;28;20037;-85
2022/11/12 11:18:14;;;;;;;116.55;26.15;;;;;;;8.10;100.00;103228.19;5017296;28;20399;-85
2022/11/12 11:21:19;;;;;;;91.03;25.02;;;;;;;8.10;100.00;103220.31;5013251;28;20065;-85
2022/11/12 11:24:24;;;;;;;173.35;31.50;;;;;;;8.07;100.00;103217.56;5020334;28;20045;-84
2022/11/12 11:27:20;;;;;;;112.25;25.40;;;;;;;8.02;100.00;103224.28;5022126;28;20041;-86
2022/11/12 11:30:10;;;;;;;160.50;27.85;;;;;;;8.00;100.00;103241.69;5014629;28;20045;-85
2022/11/12 11:33:34;;;;;;;107.75;29.05;;;;;;;7.99;100.00;103237.22;5023320;28;20105;-85
2022/11/12 11:37:02;;;;;;;54.05;25.75;;;;;;;8.00;100.00;103225.94;5017337;28;20041;-87
2022/11/12 11:39:59;;;;;;;91.22;26.90;;;;;;;8.04;100.00;103212.13;5034963;28;20252;-85
2022/11/12 11:43:01;;;;;;;166.10;30.80;;;;;;;8.07;100.00;103209.66;5010795;28;20145;-85
2022/11/12 11:46:11;;;;;;;193.73;37.00;;;;;;;8.13;100.00;103215.22;5006378;28;20037;-85
2022/11/12 11:49:01;;;;;;;70.75;26.98;;;;;;;8.16;100.00;103220.63;5018954;28;20049;-84
2022/11/12 11:52:01;;;;;;;406.48;54.83;;;;;;;8.19;100.00;103223.41;5007549;28;20045;-84
2022/11/12 11:55:13;;;;;;;262.67;42.30;;;;;;;8.24;100.00;103223.66;5015391;28;20054;-85
2022/11/12 11:58:23;;;;;;;304.95;43.08;;;;;;;8.28;100.00;103216.81;5013651;28;20288;-84
2022/11/12 12:01:26;;;;;;;235.07;39.60;;;;;;;8.34;100.00;103219.78;4992149;28;20060;-84
2022/11/12 12:04:35;;;;;;;99.90;31.75;;;;;;;8.35;100.00;103205.78;5013804;28;20034;-84
2022/11/12 12:07:43;;;;;;;89.82;30.10;;;;;;;8.36;100.00;103207.63;5024386;28;20037;-82
2022/11/12 12:10:47;;;;;;;83.97;29.00;;;;;;;8.36;100.00;103218.13;5011113;28;20045;-84
2022/11/12 12:14:18;;;;;;;54.88;27.17;;;;;;;8.38;100.00;103216.47;5015920;28;20026;-84
2022/11/12 12:17:22;;;;;;;144.07;36.33;;;;;;;8.45;100.00;103200.22;5010783;28;20518;-83
2022/11/12 12:20:19;;;;;;;;;;;;;;;8.49;100.00;103198.66;5017012;28;20117;-85
2022/11/12 12:23:37;;;;;;;76.70;30.88;;;;;;;8.49;100.00;103202.16;5012922;28;19921;-84
2022/11/12 12:26:44;;;;;;;67.28;30.33;;;;;;;8.51;100.00;103197.88;5010274;28;20053;-84
2022/11/12 12:29:41;;;;;;;52.40;28.15;;;;;;;8.52;100.00;103185.63;5029561;28;20123;-85
2022/11/12 12:32:34;;;;;;;60.80;28.80;;;;;;;8.56;100.00;103185.88;4997033;28;20034;-84
2022/11/12 12:35:32;;;;;;;49.17;28.67;;;;;;;8.57;100.00;103187.66;5011164;28;20037;-84
2022/11/12 12:38:27;;;;;;;49.45;27.77;;;;;;;8.60;100.00;103189.56;5011074;28;20074;-85
2022/11/12 12:41:26;;;;;;;47.08;29.27;;;;;;;8.68;100.00;103182.06;5021930;28;20057;-85
2022/11/12 12:44:13;;;;;;;51.30;29.08;;;;;;;8.80;100.00;103185.25;5014544;28;20144;-85
2022/11/12 12:47:02;;;;;;;43.15;27.25;;;;;;;8.88;100.00;103176.00;5019959;28;20487;-84
2022/11/12 12:49:51;;;;;;;44.00;27.27;;;;;;;8.99;100.00;103184.41;5032287;28;20053;-84
2022/11/12 12:52:58;;;;;;;35.70;24.75;;;;;;;9.07;100.00;103180.38;5015883;28;20042;-84
2022/11/12 12:55:48;;;;;;;41.13;26.65;;;;;;;9.05;100.00;103179.41;5019815;28;20073;-84
2022/11/12 12:58:47;;;;;;;38.03;24.90;;;;;;;9.04;100.00;103175.00;5021785;28;20053;-84
2022/11/12 13:01:36;;;;;;;39.03;24.83;;;;;;;9.03;100.00;103173.19;5026876;28;20067;-83
2022/11/12 13:04:53;;;;;;;37.15;25.55;;;;;;;9.04;100.00;103174.09;5002394;28;20030;-84
2022/11/12 13:07:46;;;;;;;40.28;26.13;;;;;;;8.97;100.00;103167.66;5005521;28;20050;-84
2022/11/12 13:10:46;;;;;;;37.25;24.88;;;;;;;8.95;100.00;103170.19;5011574;28;20057;-84
2022/11/12 13:13:35;;;;;;;37.78;25.60;;;;;;;8.93;100.00;103169.22;5027533;28;20049;-84
2022/11/12 13:16:51;;;;;;;38.03;25.50;;;;;;;8.87;100.00;103161.06;5020411;28;20045;-85
2022/11/12 13:19:57;;;;;;;46.60;26.73;;;;;;;8.83;100.00;103153.84;4997818;28;20053;-84
2022/11/12 13:22:50;;;;;;;40.47;25.15;;;;;;;8.78;100.00;103158.00;5012265;28;20041;-85
2022/11/12 13:25:37;;;;;;;35.50;25.17;;;;;;;8.76;100.00;103147.41;5009627;28;20050;-85
2022/11/12 13:28:24;;;;;;;39.38;26.15;;;;;;;8.78;100.00;103152.72;5029060;28;20061;-84